GCLP METAR and TAF | Updated Today

GCLP METAR

Gran Canaria Airport

Observation time: 29 min. ago

GCLP 061900Z 34008KT 9999 FEW040 17/09 Q1021 NOSIG

Need help? Read our tutorial on how to read METARs or read the parsed version below.

Gran Canaria Airport (GCLP) METAR

  • Weather conditions on Mon, 06 Feb 2023 19:00:00 +0000 (29 min. ago):
  • Present conditions: Dry
  • Clouds: A few at 1219 meters
  • Visibility: Greater than 10 km
  • Wind: 340 degrees at 8 knots
  • Temperature: 17 celsius
  • Dew point: 9 celsius
  • Pressure: 1021 millibars
  • Remarks: None


Useful to know...

GCLP TAF

Gran Canaria Airport

TAF GCLP 061400Z 0615/0715 03010KT 9999 SCT035 TX20/0714Z TN15/0706Z BECMG 0617/0619 33008KT PROB40 TEMPO 0621/0710 RA
Observation time: 5:29 hr. ago
Need help? Read our tutorial on how to read TAFs or read the parsed version below.

Parsed version of TAF for Gran Canaria Airport (GCLP)

  • From 06 February at 15:00 UTC, to day 07 of the month at 15:00 UTC
  • Clouds: Scattered at 1067 meters
  • Visibility: Greater than 10 km
  • Wind: 30 degrees at 10
  • Expected to arise soon, from 06 February at 17:00 UTC, to day 06 of the month at 19:00 UTC
  • Wind: 330 degrees at 8
  • Expected to arise temporarily, from 06 February at 21:00 UTC, to day 07 of the month at 10:00 UTC
    Probability of 40%
  • Other: Rain

Airports near GCLP

No airports found within 100nm radius.